Rickenbacker International Airport Columbus US
ICAO: KLCK
IATA: LCK
Category: Large
Scheduled Services: No

Elevation: 744 ft
TransAlt. 18000 ft.

Airport Communications:
COLUMBUS APP:119.15
AWOS 3:132.75
COLUMBUS DEP:123.8
GND:121.85
ARNG OPS:36.7
COMD POST:23.88
RICK TWR:120.05
UNICOM:122.95

KLCK Zoom In..

Runways:

(A) RW 05L length 11902 ft width 150 ft
ILS 110.55 / hdg 52

(B) RW 05R length 12102 ft width 200 ft
ILS 110.10 / hdg 52

(C) RW 23L length 12102 ft width 200 ft
ILS 110.10 / hdg 232

(D) RW 23R length 11902 ft width 150 ft
---- / hdg 232

Location; KLCK
Day. 14 / Time. 13.55 Zulu
* Altimeter: 30.04
* Temperature: 21° c. 69.8°f.
* Wind from: 200° Speed 03 kn.
Dewpoint: 19° c.
Visibility: 10 Statute Miles.
Clouds: Clear (automated report).

KLCK 141355Z AUTO 20003KT 10SM CLR 21/19 A3004 RMK AO2 T02130189


Wind From 200°
Speed 03 kn.

 
 
jpsmedia.com for Web Design worldairports.se 2018   terms of use